createdAt,value
2024-04-08T00:01:03.538Z,5.03
2024-04-08T00:03:30.703Z,6.53
2024-04-08T00:05:57.749Z,4.90
2024-04-08T00:08:25.167Z,5.63
2024-04-08T00:10:52.065Z,7.80
2024-04-08T00:13:18.919Z,5.07
2024-04-08T00:15:46.075Z,4.45
2024-04-08T00:18:14.158Z,4.22
2024-04-08T00:20:41.073Z,4.97
2024-04-08T00:23:08.131Z,5.82
2024-04-08T00:25:35.409Z,5.10
2024-04-08T00:28:02.236Z,4.93
2024-04-08T00:30:29.104Z,5.25
2024-04-08T00:32:55.975Z,5.78
2024-04-08T00:35:22.869Z,5.43
2024-04-08T00:37:50.156Z,4.88
2024-04-08T00:40:17.279Z,4.68
2024-04-08T00:42:46.471Z,5.15
2024-04-08T00:45:13.558Z,4.55
2024-04-08T00:47:40.497Z,4.82
2024-04-08T00:50:07.795Z,5.30
2024-04-08T00:52:35.091Z,4.15
2024-04-08T00:55:02.299Z,5.88
2024-04-08T00:57:30.835Z,4.95
2024-04-08T00:59:58.807Z,5.53
2024-04-08T01:02:25.822Z,4.43
2024-04-08T01:04:52.726Z,4.55
2024-04-08T01:07:19.580Z,6.07
2024-04-08T01:09:46.420Z,4.55
2024-04-08T01:12:13.310Z,5.00
2024-04-08T01:14:41.122Z,6.10
2024-04-08T01:17:08.437Z,5.15
2024-04-08T01:19:35.296Z,5.97
2024-04-08T01:22:02.282Z,6.00
2024-04-08T01:24:29.423Z,5.22
2024-04-08T01:26:56.259Z,5.38
2024-04-08T01:29:23.247Z,6.38
2024-04-08T01:31:50.158Z,5.43
2024-04-08T01:34:17.024Z,4.88
2024-04-08T01:36:45.296Z,7.07
2024-04-08T01:39:12.326Z,4.90
2024-04-08T01:41:39.264Z,6.22
2024-04-08T01:44:06.512Z,4.68
2024-04-08T01:46:33.542Z,5.10
2024-04-08T01:49:00.805Z,5.15
2024-04-08T01:51:32.009Z,4.93
2024-04-08T01:54:00.737Z,5.03
2024-04-08T01:56:30.339Z,4.28
2024-04-08T01:58:57.252Z,5.40
2024-04-08T02:01:24.512Z,4.55
2024-04-08T02:03:51.536Z,4.57
2024-04-08T02:06:20.686Z,5.65
2024-04-08T02:08:47.608Z,4.30
2024-04-08T02:11:14.918Z,4.45
2024-04-08T02:13:42.995Z,3.75
2024-04-08T02:16:10.242Z,5.63
2024-04-08T02:18:37.594Z,4.03
2024-04-08T02:21:04.692Z,4.65
2024-04-08T02:23:31.545Z,5.30
2024-04-08T02:25:59.495Z,4.40
2024-04-08T02:28:26.508Z,6.18
2024-04-08T02:30:53.700Z,3.95
2024-04-08T02:33:20.627Z,4.85
2024-04-08T02:35:47.617Z,6.18
2024-04-08T02:38:14.602Z,4.28
2024-04-08T02:40:41.604Z,3.85
2024-04-08T02:43:11.725Z,5.50
2024-04-08T02:45:41.692Z,3.80
2024-04-08T02:48:09.313Z,4.57
2024-04-08T02:50:36.322Z,4.85
2024-04-08T02:53:03.255Z,3.72
2024-04-08T02:55:30.107Z,4.63
2024-04-08T02:57:57.099Z,6.03
2024-04-08T03:00:25.361Z,4.15
2024-04-08T03:02:52.268Z,5.28
2024-04-08T03:05:19.851Z,4.13
2024-04-08T03:07:46.809Z,3.55
2024-04-08T03:10:13.714Z,4.20
2024-04-08T03:12:40.670Z,5.38
2024-04-08T03:15:07.577Z,4.15
2024-04-08T03:17:34.713Z,3.97
2024-04-08T03:20:01.587Z,5.05
2024-04-08T03:22:29.196Z,4.90
2024-04-08T03:24:56.875Z,3.85
2024-04-08T03:27:23.907Z,5.65
2024-04-08T03:29:54.075Z,6.03
2024-04-08T03:32:20.974Z,4.65
2024-04-08T03:34:47.838Z,3.22
2024-04-08T03:37:14.867Z,3.50
2024-04-08T03:39:41.770Z,4.82
2024-04-08T03:42:09.406Z,4.60
2024-04-08T03:44:36.607Z,4.63
2024-04-08T03:47:03.690Z,7.13
2024-04-08T03:49:30.548Z,4.65
2024-04-08T03:51:57.504Z,6.07
2024-04-08T03:54:24.467Z,5.32
2024-04-08T03:56:51.514Z,4.93
2024-04-08T03:59:19.372Z,6.60
2024-04-08T04:01:46.216Z,5.00
2024-04-08T04:04:13.088Z,7.55
2024-04-08T04:06:40.213Z,3.58
2024-04-08T04:09:07.282Z,4.35
2024-04-08T04:11:34.433Z,4.15
2024-04-08T04:14:01.377Z,3.60
2024-04-08T04:16:28.556Z,5.03
2024-04-08T04:18:55.771Z,3.90
2024-04-08T04:21:23.023Z,4.63
2024-04-08T04:23:50.257Z,3.80
2024-04-08T04:26:17.124Z,3.17
2024-04-08T04:28:44.052Z,3.50
2024-04-08T04:31:10.917Z,3.70
2024-04-08T04:33:37.909Z,3.60
2024-04-08T04:36:05.158Z,3.35
2024-04-08T04:38:32.001Z,3.72
2024-04-08T04:41:06.286Z,4.70
2024-04-08T04:43:33.922Z,3.75
2024-04-08T04:46:01.048Z,4.38
2024-04-08T04:48:28.334Z,4.10
2024-04-08T04:50:55.607Z,4.95
2024-04-08T04:53:22.751Z,6.15
2024-04-08T04:55:56.000Z,4.22
2024-04-08T04:58:23.639Z,4.65
2024-04-08T05:00:51.520Z,4.15
2024-04-08T05:03:20.369Z,3.97
2024-04-08T05:05:56.945Z,4.10
2024-04-08T05:08:24.947Z,5.63
2024-04-08T05:10:52.301Z,10.80
2024-04-08T05:13:19.991Z,8.98
2024-04-08T05:16:00.735Z,18.63
2024-04-08T05:18:29.366Z,10.77
2024-04-08T05:21:03.705Z,11.45
2024-04-08T05:23:32.208Z,13.98
2024-04-08T05:25:59.711Z,12.00
2024-04-08T05:28:26.762Z,14.23
2024-04-08T05:30:53.694Z,14.63
2024-04-08T05:33:21.806Z,22.48
2024-04-08T05:35:48.912Z,22.27
2024-04-08T05:38:18.899Z,15.73
2024-04-08T05:40:45.863Z,9.05
2024-04-08T05:43:17.204Z,8.57
2024-04-08T05:45:44.626Z,10.63
2024-04-08T05:48:11.642Z,12.45
2024-04-08T05:50:38.761Z,10.93
2024-04-08T05:53:05.752Z,9.55
2024-04-08T05:55:33.026Z,9.38
2024-04-08T05:58:01.001Z,12.38
2024-04-08T06:00:28.353Z,8.95
2024-04-08T06:02:56.329Z,11.10
2024-04-08T06:05:26.127Z,9.68
2024-04-08T06:07:54.494Z,9.10
2024-04-08T06:10:23.094Z,10.30
2024-04-08T06:12:50.766Z,9.10
2024-04-08T06:15:17.966Z,7.38
2024-04-08T06:17:45.211Z,9.50
2024-04-08T06:20:12.440Z,4.78
2024-04-08T06:22:39.341Z,5.30
2024-04-08T06:25:07.875Z,3.75
2024-04-08T06:27:35.149Z,5.35
2024-04-08T06:30:02.919Z,3.58
2024-04-08T06:32:30.260Z,5.30
2024-04-08T06:34:57.096Z,3.95
2024-04-08T06:37:24.023Z,4.72
2024-04-08T06:39:51.174Z,5.38
2024-04-08T06:42:19.387Z,4.03
2024-04-08T06:44:52.900Z,9.98
2024-04-08T06:47:23.022Z,3.15
2024-04-08T06:49:50.151Z,3.97
2024-04-08T06:52:17.069Z,3.90
2024-04-08T06:54:45.115Z,5.43
2024-04-08T06:57:12.000Z,3.65
2024-04-08T06:59:39.590Z,3.63
2024-04-08T07:02:07.004Z,4.93
2024-04-08T07:04:34.067Z,2.85
2024-04-08T07:07:01.478Z,3.83
2024-04-08T07:09:30.967Z,3.92
2024-04-08T07:12:02.511Z,4.38
2024-04-08T07:14:29.623Z,3.80
2024-04-08T07:16:56.595Z,6.05
2024-04-08T07:19:23.623Z,3.08
2024-04-08T07:21:53.387Z,4.78
2024-04-08T07:24:21.815Z,2.70
2024-04-08T07:26:48.801Z,2.45
2024-04-08T07:29:16.463Z,2.13
2024-04-08T07:31:43.382Z,3.40
2024-04-08T07:34:10.785Z,4.10
2024-04-08T07:36:37.723Z,2.22
2024-04-08T07:39:04.665Z,4.55
2024-04-08T07:41:31.676Z,2.78
2024-04-08T07:43:58.597Z,4.88
2024-04-08T07:46:25.511Z,6.05
2024-04-08T07:48:52.463Z,3.33
2024-04-08T07:51:19.844Z,3.67
2024-04-08T07:53:46.871Z,4.53
2024-04-08T07:56:13.962Z,2.60
2024-04-08T07:58:42.092Z,3.15
2024-04-08T08:01:09.208Z,3.28
2024-04-08T08:03:36.692Z,4.80
2024-04-08T08:06:07.104Z,3.80
2024-04-08T08:08:36.068Z,4.63
2024-04-08T08:11:06.053Z,3.00
2024-04-08T08:13:34.276Z,3.38
2024-04-08T08:16:01.970Z,4.40
2024-04-08T08:18:30.591Z,4.18
2024-04-08T08:20:59.662Z,3.35
2024-04-08T08:23:26.684Z,3.28
2024-04-08T08:25:54.567Z,4.43
2024-04-08T08:28:22.685Z,4.18
2024-04-08T08:30:50.180Z,3.65
2024-04-08T08:33:17.194Z,3.95
2024-04-08T08:35:44.178Z,4.90
2024-04-08T08:38:11.456Z,3.13
2024-04-08T08:40:44.428Z,4.82
2024-04-08T08:43:12.643Z,5.05
2024-04-08T08:45:43.312Z,4.10
2024-04-08T08:48:10.349Z,4.88
2024-04-08T08:50:38.587Z,2.67
2024-04-08T08:53:06.226Z,4.18
2024-04-08T08:55:34.297Z,2.67
2024-04-08T08:58:05.888Z,2.72
2024-04-08T09:00:33.300Z,3.40
2024-04-08T09:03:01.797Z,3.70
2024-04-08T09:05:28.718Z,1.90
2024-04-08T09:07:55.643Z,2.92
2024-04-08T09:10:24.604Z,4.47
2024-04-08T09:12:53.354Z,4.78
2024-04-08T09:15:20.242Z,4.57
2024-04-08T09:17:47.415Z,2.38
2024-04-08T09:20:15.139Z,2.78
2024-04-08T09:22:42.333Z,2.90
2024-04-08T09:25:13.981Z,3.15
2024-04-08T09:27:41.101Z,2.95
2024-04-08T09:30:08.725Z,4.35
2024-04-08T09:32:36.797Z,2.83
2024-04-08T09:35:08.332Z,3.75
2024-04-08T09:37:35.378Z,2.33
2024-04-08T09:40:04.992Z,2.88
2024-04-08T09:42:34.919Z,2.95
2024-04-08T09:45:04.203Z,3.53
2024-04-08T09:47:32.239Z,2.95
2024-04-08T09:50:00.972Z,2.72
2024-04-08T09:52:29.171Z,3.63
2024-04-08T09:54:57.804Z,4.53
2024-04-08T09:57:28.960Z,6.15
2024-04-08T09:59:58.247Z,3.33
2024-04-08T10:02:38.109Z,2.40
2024-04-08T10:05:06.516Z,6.35
2024-04-08T10:07:34.355Z,5.85
2024-04-08T10:10:11.069Z,2.97
2024-04-08T10:12:38.507Z,4.10
2024-04-08T10:15:16.467Z,2.67
2024-04-08T10:17:43.927Z,3.33
2024-04-08T10:20:20.602Z,3.38
2024-04-08T10:22:48.285Z,2.55
2024-04-08T10:25:38.144Z,4.20
2024-04-08T10:28:07.484Z,4.05
2024-04-08T10:30:45.399Z,3.17
2024-04-08T10:33:12.975Z,3.70
2024-04-08T10:35:40.421Z,2.80
2024-04-08T10:38:08.568Z,3.67
2024-04-08T10:40:35.814Z,4.80
2024-04-08T10:43:03.132Z,3.22
2024-04-08T10:45:30.195Z,5.60
2024-04-08T10:48:04.049Z,6.35
2024-04-08T10:50:35.256Z,3.75
2024-04-08T10:53:04.001Z,6.53
2024-04-08T10:55:31.192Z,2.30
2024-04-08T10:57:58.252Z,4.40
2024-04-08T11:00:26.108Z,2.90
2024-04-08T11:02:53.256Z,5.68
2024-04-08T11:05:23.057Z,4.20
2024-04-08T11:07:50.236Z,4.28
2024-04-08T11:10:18.723Z,6.57
2024-04-08T11:12:46.551Z,4.05
2024-04-08T11:15:15.486Z,4.18
2024-04-08T11:17:43.158Z,4.28
2024-04-08T11:20:14.352Z,3.28
2024-04-08T11:22:41.571Z,4.60
2024-04-08T11:25:16.911Z,3.67
2024-04-08T11:27:45.380Z,4.60
2024-04-08T11:30:15.695Z,3.83
2024-04-08T11:32:43.252Z,4.53
2024-04-08T11:35:10.876Z,5.40
2024-04-08T11:37:38.052Z,4.53
2024-04-08T11:40:08.617Z,4.93
2024-04-08T11:42:35.746Z,4.20
2024-04-08T11:45:08.577Z,5.45
2024-04-08T11:47:37.083Z,4.25
2024-04-08T11:50:05.329Z,3.83
2024-04-08T11:52:32.717Z,3.75
2024-04-08T11:55:01.763Z,5.07
2024-04-08T11:57:30.794Z,5.28
2024-04-08T11:59:57.938Z,3.28
2024-04-08T12:02:25.184Z,3.20
2024-04-08T12:04:53.995Z,3.42
2024-04-08T12:07:21.279Z,2.50
2024-04-08T12:09:48.270Z,4.07
2024-04-08T12:12:15.387Z,4.10
2024-04-08T12:14:43.241Z,3.95
2024-04-08T12:17:10.805Z,5.07
2024-04-08T12:19:38.118Z,3.03
2024-04-08T12:22:05.220Z,3.05
2024-04-08T12:24:32.085Z,2.97
2024-04-08T12:26:58.995Z,3.42
2024-04-08T12:29:25.932Z,2.70
2024-04-08T12:31:53.819Z,3.47
2024-04-08T12:34:20.738Z,3.95
2024-04-08T12:36:47.657Z,4.18
2024-04-08T12:39:14.911Z,5.10
2024-04-08T12:41:41.814Z,2.53
2024-04-08T12:44:10.570Z,6.28
2024-04-08T12:46:37.692Z,3.55
2024-04-08T12:49:04.794Z,3.45
2024-04-08T12:51:32.034Z,2.63
2024-04-08T12:53:59.246Z,2.88
2024-04-08T12:56:26.282Z,7.57
2024-04-08T12:58:57.792Z,4.70
2024-04-08T13:01:26.353Z,2.45
2024-04-08T13:03:54.443Z,3.10
2024-04-08T13:06:21.885Z,5.10
2024-04-08T13:08:49.300Z,2.60
2024-04-08T13:11:17.017Z,2.30
2024-04-08T13:13:47.018Z,4.13
2024-04-08T13:16:16.074Z,2.47
2024-04-08T13:18:44.396Z,2.80
2024-04-08T13:21:12.425Z,3.75
2024-04-08T13:23:40.494Z,2.78
2024-04-08T13:26:11.127Z,2.67
2024-04-08T13:28:38.108Z,5.95
2024-04-08T13:31:05.413Z,5.40
2024-04-08T13:33:32.617Z,2.40
2024-04-08T13:36:00.680Z,1.85
2024-04-08T13:38:28.690Z,2.33
2024-04-08T13:40:55.575Z,2.20
2024-04-08T13:43:22.499Z,2.78
2024-04-08T13:45:49.649Z,3.95
2024-04-08T13:48:16.667Z,4.22
2024-04-08T13:50:43.965Z,4.00
2024-04-08T13:53:11.072Z,2.90
2024-04-08T13:55:39.644Z,2.85
2024-04-08T13:58:07.244Z,7.13
2024-04-08T14:00:34.950Z,2.17
2024-04-08T14:03:02.070Z,2.95
2024-04-08T14:05:29.050Z,3.30
2024-04-08T14:07:55.919Z,3.55
2024-04-08T14:10:22.773Z,2.78
2024-04-08T14:12:49.658Z,3.58
2024-04-08T14:15:17.628Z,7.53
2024-04-08T14:17:44.858Z,3.67
2024-04-08T14:20:11.956Z,5.25
2024-04-08T14:22:39.611Z,3.60
2024-04-08T14:25:07.139Z,4.90
2024-04-08T14:27:34.807Z,4.25
2024-04-08T14:30:02.101Z,3.20
2024-04-08T14:32:29.211Z,2.35
2024-04-08T14:34:56.802Z,2.45
2024-04-08T14:37:42.563Z,4.25
2024-04-08T14:40:11.356Z,4.82
2024-04-08T14:42:38.913Z,3.97
2024-04-08T14:45:06.390Z,6.32
2024-04-08T14:47:33.659Z,2.60
2024-04-08T14:50:00.839Z,6.30
2024-04-08T14:52:33.543Z,4.13
2024-04-08T14:55:07.423Z,4.40
2024-04-08T14:57:35.077Z,5.32
2024-04-08T15:00:02.254Z,4.25
2024-04-08T15:02:29.352Z,4.43
2024-04-08T15:04:56.355Z,2.67
2024-04-08T15:07:28.049Z,6.03
2024-04-08T15:09:56.554Z,2.28
2024-04-08T15:12:23.954Z,6.60
2024-04-08T15:14:50.995Z,5.43
2024-04-08T15:17:20.887Z,4.63
2024-04-08T15:19:49.497Z,2.80
2024-04-08T15:22:16.483Z,5.85
2024-04-08T15:24:45.002Z,3.58
2024-04-08T15:27:14.183Z,5.68
2024-04-08T15:29:43.909Z,3.30
2024-04-08T15:32:13.260Z,2.65
2024-04-08T15:34:42.320Z,6.05
2024-04-08T15:37:10.884Z,2.33
2024-04-08T15:39:38.216Z,4.55
2024-04-08T15:42:05.539Z,4.15
2024-04-08T15:44:32.571Z,1.95
2024-04-08T15:46:59.643Z,3.42
2024-04-08T15:49:26.779Z,3.70
2024-04-08T15:51:57.477Z,2.95
2024-04-08T15:54:25.515Z,2.40
2024-04-08T15:56:56.111Z,4.72
2024-04-08T15:59:23.069Z,1.92
2024-04-08T16:01:50.140Z,3.55
2024-04-08T16:04:17.345Z,3.03
2024-04-08T16:06:46.000Z,8.07
2024-04-08T16:09:14.125Z,2.20
2024-04-08T16:11:41.328Z,3.25
2024-04-08T16:14:08.359Z,3.75
2024-04-08T16:16:36.020Z,3.30
2024-04-08T16:19:02.900Z,6.10
2024-04-08T16:21:29.919Z,2.67
2024-04-08T16:23:57.501Z,9.07
2024-04-08T16:26:25.770Z,7.43
2024-04-08T16:28:59.840Z,5.72
2024-04-08T16:31:33.437Z,6.78
2024-04-08T16:34:01.623Z,3.28
2024-04-08T16:36:30.612Z,10.98
2024-04-08T16:38:58.961Z,3.42
2024-04-08T16:41:26.319Z,3.20
2024-04-08T16:43:53.375Z,4.15
2024-04-08T16:46:24.227Z,3.47
2024-04-08T16:48:51.858Z,4.07
2024-04-08T16:51:20.451Z,5.85
2024-04-08T16:53:47.542Z,5.45
2024-04-08T16:56:14.459Z,3.80
2024-04-08T16:58:41.342Z,4.35
2024-04-08T17:01:08.302Z,3.65
2024-04-08T17:03:35.998Z,4.38
2024-04-08T17:06:04.742Z,2.53
2024-04-08T17:08:32.744Z,4.82
2024-04-08T17:11:02.505Z,3.03
2024-04-08T17:13:31.120Z,2.75
2024-04-08T17:15:58.494Z,5.75
2024-04-08T17:18:26.114Z,6.43
2024-04-08T17:20:57.315Z,3.80
2024-04-08T17:23:25.458Z,7.63
2024-04-08T17:25:54.060Z,5.00
2024-04-08T17:28:21.075Z,4.57
2024-04-08T17:30:58.648Z,5.28
2024-04-08T17:33:27.593Z,6.20
2024-04-08T17:36:02.806Z,4.63
2024-04-08T17:38:30.280Z,8.02
2024-04-08T17:41:01.439Z,4.07
2024-04-08T17:43:32.790Z,4.82
2024-04-08T17:46:04.135Z,5.28
2024-04-08T17:48:36.472Z,5.70
2024-04-08T17:51:05.442Z,7.50
2024-04-08T17:53:34.126Z,4.53
2024-04-08T17:56:02.830Z,6.65
2024-04-08T17:58:31.376Z,5.43
2024-04-08T18:01:05.296Z,4.78
2024-04-08T18:03:32.769Z,5.45
2024-04-08T18:06:24.169Z,6.93
2024-04-08T18:08:52.558Z,4.63
2024-04-08T18:11:22.244Z,4.45
2024-04-08T18:13:49.523Z,10.63
2024-04-08T18:16:21.882Z,4.70
2024-04-08T18:18:51.079Z,4.55
2024-04-08T18:21:19.750Z,6.25
2024-04-08T18:23:47.650Z,6.68
2024-04-08T18:26:20.245Z,8.13
2024-04-08T18:28:56.768Z,4.85
2024-04-08T18:31:23.747Z,4.15
2024-04-08T18:33:54.772Z,7.28
2024-04-08T18:36:21.953Z,6.72
2024-04-08T18:38:51.188Z,5.75
2024-04-08T18:41:19.783Z,4.65
2024-04-08T18:43:47.039Z,10.80
2024-04-08T18:46:24.424Z,6.90
2024-04-08T18:48:52.166Z,5.68
2024-04-08T18:51:19.276Z,5.30
2024-04-08T18:53:46.939Z,4.30
2024-04-08T18:56:14.191Z,9.25
2024-04-08T18:58:41.112Z,5.20
2024-04-08T19:01:16.557Z,4.88
2024-04-08T19:03:47.668Z,5.72
2024-04-08T19:06:14.998Z,5.97
2024-04-08T19:08:41.838Z,6.90
2024-04-08T19:11:08.821Z,7.22
2024-04-08T19:13:35.860Z,9.73
2024-04-08T19:16:06.332Z,8.95
2024-04-08T19:18:35.113Z,11.15
2024-04-08T19:21:09.360Z,6.80
2024-04-08T19:23:36.537Z,8.75
2024-04-08T19:26:04.755Z,11.10
2024-04-08T19:28:32.325Z,7.65
2024-04-08T19:31:00.359Z,9.95
2024-04-08T19:33:27.463Z,7.95
2024-04-08T19:35:57.945Z,10.90
2024-04-08T19:38:28.936Z,10.85
2024-04-08T19:41:03.606Z,9.77
2024-04-08T19:43:30.500Z,8.48
2024-04-08T19:46:06.352Z,13.05
2024-04-08T19:48:42.442Z,7.13
2024-04-08T19:51:16.651Z,5.50
2024-04-08T19:53:46.882Z,7.15
2024-04-08T19:56:19.752Z,7.95
2024-04-08T19:58:47.605Z,8.50
2024-04-08T20:01:14.624Z,7.43
2024-04-08T20:03:42.245Z,6.68
2024-04-08T20:06:09.719Z,4.90
2024-04-08T20:08:37.520Z,5.60
2024-04-08T20:11:06.659Z,5.25
2024-04-08T20:13:34.681Z,7.05
2024-04-08T20:16:22.561Z,10.32
2024-04-08T20:18:51.066Z,7.30
2024-04-08T20:21:21.026Z,4.85
2024-04-08T20:23:48.039Z,5.35
2024-04-08T20:26:15.020Z,7.57
2024-04-08T20:28:42.353Z,6.80
2024-04-08T20:31:10.054Z,10.93
2024-04-08T20:33:38.601Z,6.95
2024-04-08T20:36:08.068Z,6.80
2024-04-08T20:38:36.410Z,5.80
2024-04-08T20:41:05.691Z,5.85
2024-04-08T20:43:33.761Z,5.13
2024-04-08T20:46:00.818Z,7.18
2024-04-08T20:48:28.034Z,6.35
2024-04-08T20:50:59.866Z,6.80
2024-04-08T20:53:28.082Z,7.10
2024-04-08T20:55:59.679Z,7.47
2024-04-08T20:58:27.973Z,5.53
2024-04-08T21:00:57.281Z,5.45
2024-04-08T21:03:24.751Z,5.78
2024-04-08T21:06:05.206Z,6.85
2024-04-08T21:08:32.531Z,6.65
2024-04-08T21:11:01.011Z,7.82
2024-04-08T21:13:28.461Z,6.63
2024-04-08T21:15:59.609Z,9.25
2024-04-08T21:18:27.406Z,6.10
2024-04-08T21:21:05.032Z,7.30
2024-04-08T21:23:33.259Z,10.02
2024-04-08T21:26:14.800Z,7.03
2024-04-08T21:28:43.595Z,6.47
2024-04-08T21:31:11.480Z,6.88
2024-04-08T21:33:40.339Z,7.65
2024-04-08T21:36:08.556Z,9.15
2024-04-08T21:38:36.086Z,5.90
2024-04-08T21:41:11.166Z,5.55
2024-04-08T21:43:39.191Z,5.25
2024-04-08T21:46:07.631Z,5.32
2024-04-08T21:48:35.194Z,8.98
2024-04-08T21:51:05.761Z,5.40
2024-04-08T21:53:32.839Z,6.65
2024-04-08T21:56:05.319Z,7.13
2024-04-08T21:58:35.743Z,7.82
2024-04-08T22:01:07.155Z,7.23
2024-04-08T22:03:34.452Z,6.43
2024-04-08T22:06:02.501Z,6.55
2024-04-08T22:08:29.872Z,5.93
2024-04-08T22:10:57.738Z,6.15
2024-04-08T22:13:25.606Z,7.38
2024-04-08T22:15:53.188Z,5.97
2024-04-08T22:18:24.332Z,5.43
2024-04-08T22:20:52.584Z,6.25
2024-04-08T22:23:20.248Z,6.95
2024-04-08T22:25:47.598Z,6.65
2024-04-08T22:28:14.513Z,6.57
2024-04-08T22:30:42.357Z,7.28
2024-04-08T22:33:09.612Z,8.98
2024-04-08T22:35:37.195Z,9.80
2024-04-08T22:38:04.588Z,5.45
2024-04-08T22:40:31.607Z,7.88
2024-04-08T22:42:58.480Z,11.82
2024-04-08T22:45:26.419Z,7.20
2024-04-08T22:47:53.652Z,8.30
2024-04-08T22:50:22.007Z,8.60
2024-04-08T22:52:49.858Z,6.75
2024-04-08T22:55:16.914Z,6.25
2024-04-08T22:57:44.709Z,7.72
2024-04-08T23:00:13.999Z,7.78
2024-04-08T23:02:41.617Z,6.28
2024-04-08T23:05:09.569Z,7.40
2024-04-08T23:07:37.159Z,8.25
2024-04-08T23:10:05.200Z,6.32
2024-04-08T23:12:32.644Z,10.32
2024-04-08T23:14:59.760Z,7.28
2024-04-08T23:17:26.792Z,8.25
2024-04-08T23:19:53.724Z,8.20
2024-04-08T23:22:20.694Z,6.90
2024-04-08T23:24:47.912Z,6.25
2024-04-08T23:27:15.185Z,6.03
2024-04-08T23:29:42.227Z,8.40
2024-04-08T23:32:10.414Z,6.68
2024-04-08T23:34:37.850Z,7.93
2024-04-08T23:37:05.856Z,8.02
2024-04-08T23:39:32.888Z,8.38
2024-04-08T23:42:00.128Z,9.77
2024-04-08T23:44:28.278Z,7.78
2024-04-08T23:46:55.246Z,7.60
2024-04-08T23:49:22.288Z,8.05
2024-04-08T23:51:49.782Z,8.13
2024-04-08T23:54:16.859Z,7.22
2024-04-08T23:56:43.815Z,6.45
2024-04-08T23:59:10.849Z,7.25
